createdAt,value
2023-04-18T00:00:26.407Z,11.48
2023-04-18T00:05:37.243Z,11.13
2023-04-18T00:10:41.030Z,9.73
2023-04-18T00:15:46.641Z,9.95
2023-04-18T00:20:53.452Z,13.73
2023-04-18T00:25:58.535Z,11.85
2023-04-18T00:31:02.156Z,12.73
2023-04-18T00:36:11.068Z,8.90
2023-04-18T00:41:15.135Z,10.82
2023-04-18T00:46:21.273Z,9.85
2023-04-18T00:51:30.393Z,12.52
2023-04-18T00:56:38.248Z,10.13
2023-04-18T01:01:43.994Z,11.77
2023-04-18T01:06:53.433Z,9.23
2023-04-18T01:12:00.230Z,10.30
2023-04-18T01:17:09.436Z,11.70
2023-04-18T01:22:16.530Z,13.65
2023-04-18T01:27:24.046Z,10.52
2023-04-18T01:32:35.105Z,11.80
2023-04-18T01:37:45.368Z,9.77
2023-04-18T01:42:53.900Z,13.40
2023-04-18T01:53:06.907Z,14.23
2023-04-18T01:58:12.135Z,12.48
2023-04-18T02:03:15.626Z,11.88
2023-04-18T02:08:19.249Z,12.63
2023-04-18T02:13:26.110Z,15.02
2023-04-18T02:18:34.741Z,10.88
2023-04-18T02:23:38.562Z,11.25
2023-04-18T02:28:45.651Z,11.70
2023-04-18T02:33:51.020Z,13.15
2023-04-18T02:38:59.377Z,12.98
2023-04-18T02:44:13.331Z,13.82
2023-04-18T02:49:20.245Z,17.85
2023-04-18T02:54:26.146Z,11.68
2023-04-18T02:59:44.254Z,13.10
2023-04-18T03:05:11.241Z,13.50
2023-04-18T03:10:17.503Z,15.15
2023-04-18T03:15:27.208Z,13.90
2023-04-18T03:20:31.048Z,12.77
2023-04-18T03:25:34.603Z,15.85
2023-04-18T03:30:42.856Z,18.80
2023-04-18T03:35:46.847Z,15.73
2023-04-18T03:40:53.921Z,15.30
2023-04-18T03:46:09.268Z,14.35
2023-04-18T03:51:14.030Z,16.15
2023-04-18T03:56:19.525Z,13.57
2023-04-18T04:01:35.332Z,17.67
2023-04-18T04:06:41.042Z,16.40
2023-04-18T04:11:46.288Z,18.55
2023-04-18T04:16:53.352Z,15.90
2023-04-18T04:21:58.275Z,15.18
2023-04-18T04:27:02.048Z,12.75
2023-04-18T04:32:08.224Z,16.75
2023-04-18T04:37:18.965Z,23.60
2023-04-18T04:42:42.434Z,20.20
2023-04-18T04:47:57.039Z,18.85
2023-04-18T04:53:00.681Z,18.38
2023-04-18T04:58:05.396Z,16.70
2023-04-18T05:03:36.700Z,17.75
2023-04-18T05:08:41.724Z,15.70
2023-04-18T05:13:45.684Z,16.13
2023-04-18T05:18:55.006Z,14.30
2023-04-18T05:24:00.354Z,14.35
2023-04-18T05:29:03.392Z,18.23
2023-04-18T05:34:08.473Z,11.20
2023-04-18T05:39:11.833Z,14.57
2023-04-18T05:44:17.514Z,20.70
2023-04-18T05:49:33.229Z,14.45
2023-04-18T05:54:39.378Z,15.77
2023-04-18T05:59:45.780Z,14.75
2023-04-18T06:04:52.483Z,15.38
2023-04-18T06:09:57.465Z,15.23
2023-04-18T06:15:06.122Z,15.70
2023-04-18T06:20:12.442Z,16.98
2023-04-18T06:25:19.237Z,15.80
2023-04-18T06:30:24.751Z,15.13
2023-04-18T06:35:32.975Z,15.05
2023-04-18T06:40:38.018Z,19.30
2023-04-18T06:45:41.844Z,21.75
2023-04-18T06:50:50.836Z,20.50
2023-04-18T06:56:02.812Z,17.40
2023-04-18T07:01:11.670Z,21.48
2023-04-18T07:06:18.943Z,23.27
2023-04-18T07:11:24.577Z,22.50
2023-04-18T07:16:28.050Z,24.75
2023-04-18T07:21:33.078Z,23.33
2023-04-18T07:26:37.709Z,19.95
2023-04-18T07:31:52.849Z,22.35
2023-04-18T07:36:58.281Z,21.75
2023-04-18T07:42:02.499Z,19.10
2023-04-18T07:47:10.054Z,23.27
2023-04-18T07:52:17.113Z,20.98
2023-04-18T07:57:20.578Z,16.85
2023-04-18T08:02:24.766Z,16.67
2023-04-18T08:07:29.610Z,15.65
2023-04-18T08:12:33.664Z,16.33
2023-04-18T08:17:39.357Z,14.95
2023-04-18T08:23:05.068Z,13.40
2023-04-18T08:28:09.085Z,12.38
2023-04-18T08:33:12.728Z,17.52
2023-04-18T08:38:21.117Z,15.02
2023-04-18T08:43:25.382Z,10.93
2023-04-18T08:48:32.621Z,15.75
2023-04-18T08:53:39.308Z,14.00
2023-04-18T08:58:47.645Z,13.48
2023-04-18T09:03:55.193Z,14.90
2023-04-18T09:09:11.479Z,16.30
2023-04-18T09:14:27.959Z,14.60
2023-04-18T09:19:36.687Z,13.90
2023-04-18T09:24:44.819Z,13.67
2023-04-18T09:29:57.368Z,11.83
2023-04-18T09:35:05.049Z,12.63
2023-04-18T09:40:22.121Z,12.00
2023-04-18T09:45:27.800Z,14.38
2023-04-18T09:50:31.426Z,13.95
2023-04-18T09:55:36.611Z,11.52
2023-04-18T10:00:42.003Z,13.65
2023-04-18T10:05:47.674Z,13.77
2023-04-18T10:10:53.849Z,11.52
2023-04-18T10:16:03.925Z,13.07
2023-04-18T10:21:11.687Z,13.85
2023-04-18T10:26:16.973Z,14.70
2023-04-18T10:31:26.102Z,14.23
2023-04-18T10:36:30.759Z,16.90
2023-04-18T10:41:39.287Z,14.38
2023-04-18T10:47:23.831Z,13.77
2023-04-18T10:52:29.092Z,13.75
2023-04-18T10:57:51.922Z,16.55
2023-04-18T11:02:57.954Z,15.23
2023-04-18T11:08:02.597Z,14.07
2023-04-18T11:13:10.659Z,15.48
2023-04-18T11:18:27.797Z,14.55
2023-04-18T11:23:31.093Z,15.60
2023-04-18T11:28:41.490Z,15.38
2023-04-18T11:33:47.834Z,11.95
2023-04-18T11:38:53.312Z,15.18
2023-04-18T11:43:58.374Z,14.80
2023-04-18T11:49:10.057Z,13.20
2023-04-18T11:54:48.778Z,16.92
2023-04-18T11:59:59.960Z,14.50
2023-04-18T12:05:30.539Z,14.40
2023-04-18T12:10:36.342Z,14.85
2023-04-18T12:15:42.367Z,15.40
2023-04-18T12:20:50.380Z,14.88
2023-04-18T12:26:00.641Z,11.75
2023-04-18T12:31:08.702Z,13.77
2023-04-18T12:36:12.324Z,15.38
2023-04-18T12:41:16.211Z,14.43
2023-04-18T12:46:22.246Z,10.88
2023-04-18T12:51:28.262Z,11.98
2023-04-18T12:56:31.673Z,12.27
2023-04-18T13:01:39.520Z,12.00
2023-04-18T13:06:43.282Z,10.70
2023-04-18T13:11:47.729Z,9.57
2023-04-18T13:17:01.025Z,9.93
2023-04-18T13:22:04.729Z,9.15
2023-04-18T13:27:10.649Z,9.90
2023-04-18T13:32:15.650Z,9.75
2023-04-18T13:37:22.475Z,10.38
2023-04-18T13:42:26.253Z,10.43
2023-04-18T13:47:35.064Z,11.95
2023-04-18T13:52:41.670Z,8.50
2023-04-18T13:57:46.015Z,9.27
2023-04-18T14:02:52.866Z,8.65
2023-04-18T14:08:03.550Z,10.05
2023-04-18T14:13:10.210Z,7.82
2023-04-18T14:18:16.682Z,8.95
2023-04-18T14:23:24.269Z,6.90
2023-04-18T14:28:29.542Z,7.32
2023-04-18T14:33:36.278Z,7.22
2023-04-18T14:38:43.022Z,7.40
2023-04-18T14:43:46.593Z,6.63
2023-04-18T14:49:02.986Z,6.72
2023-04-18T14:54:08.795Z,6.90
2023-04-18T14:59:16.390Z,6.72
2023-04-18T15:04:22.560Z,8.20
2023-04-18T15:09:27.549Z,6.22
2023-04-18T15:14:33.124Z,6.38
2023-04-18T15:19:45.409Z,5.85
2023-04-18T15:24:48.539Z,6.75
2023-04-18T15:29:56.296Z,8.57
2023-04-18T15:35:08.464Z,5.60
2023-04-18T15:40:16.464Z,6.57
2023-04-18T15:45:20.632Z,6.85
2023-04-18T15:50:26.483Z,6.85
2023-04-18T15:55:31.925Z,5.18
2023-04-18T16:00:40.762Z,6.30
2023-04-18T16:05:52.896Z,6.10
2023-04-18T16:11:00.815Z,5.82
2023-04-18T16:16:05.749Z,6.32
2023-04-18T16:21:14.350Z,6.78
2023-04-18T16:26:19.693Z,5.55
2023-04-18T16:31:24.587Z,5.28
2023-04-18T16:36:29.758Z,4.90
2023-04-18T16:41:33.880Z,6.57
2023-04-18T16:46:37.873Z,5.85
2023-04-18T16:51:43.531Z,5.60
2023-04-18T16:56:48.470Z,8.70
2023-04-18T17:01:51.796Z,5.32
2023-04-18T17:06:56.730Z,8.05
2023-04-18T17:12:07.214Z,9.52
2023-04-18T17:17:10.722Z,7.55
2023-04-18T17:22:17.306Z,8.30
2023-04-18T17:27:20.376Z,6.32
2023-04-18T17:32:23.899Z,7.15
2023-04-18T17:37:28.791Z,7.75
2023-04-18T17:42:32.771Z,8.52
2023-04-18T17:47:36.840Z,9.02
2023-04-18T17:52:42.062Z,8.50
2023-04-18T17:57:49.769Z,8.60
2023-04-18T18:02:53.801Z,7.72
2023-04-18T18:08:01.713Z,9.32
2023-04-18T18:13:08.439Z,10.15
2023-04-18T18:18:13.746Z,7.78
2023-04-18T18:23:21.438Z,9.23
2023-04-18T18:28:29.210Z,10.25
2023-04-18T18:33:33.691Z,13.95
2023-04-18T18:38:39.029Z,13.45
2023-04-18T18:43:42.265Z,13.85
2023-04-18T18:48:52.007Z,15.75
2023-04-18T18:53:57.973Z,13.80
2023-04-18T18:59:02.401Z,15.75
2023-04-18T19:04:10.106Z,13.73
2023-04-18T19:09:15.488Z,16.85
2023-04-18T19:14:18.741Z,18.15
2023-04-18T19:19:22.004Z,16.05
2023-04-18T19:24:26.832Z,15.93
2023-04-18T19:29:32.711Z,14.77
2023-04-18T19:34:37.435Z,19.35
2023-04-18T19:39:42.671Z,16.23
2023-04-18T19:44:46.780Z,15.95
2023-04-18T19:49:50.387Z,17.23
2023-04-18T19:54:57.225Z,15.65
2023-04-18T20:00:01.412Z,15.65
2023-04-18T20:05:06.118Z,17.38
2023-04-18T20:10:11.706Z,15.07
2023-04-18T20:15:15.662Z,16.77
2023-04-18T20:20:19.137Z,14.65
2023-04-18T20:25:24.519Z,14.82
2023-04-18T20:30:29.572Z,13.32
2023-04-18T20:35:33.856Z,13.82
2023-04-18T20:40:40.194Z,13.40
2023-04-18T20:45:44.322Z,13.07
2023-04-18T20:50:51.696Z,14.65
2023-04-18T20:55:57.406Z,15.38
2023-04-18T21:01:01.525Z,12.85
2023-04-18T21:06:05.190Z,13.25
2023-04-18T21:11:10.915Z,11.73
2023-04-18T21:16:15.653Z,12.13
2023-04-18T21:21:22.672Z,14.40
2023-04-18T21:26:28.093Z,11.15
2023-04-18T21:31:35.614Z,12.93
2023-04-18T21:36:40.217Z,12.77
2023-04-18T21:41:47.191Z,13.00
2023-04-18T21:46:52.465Z,10.82
2023-04-18T21:51:57.134Z,9.70
2023-04-18T21:57:03.217Z,10.38
2023-04-18T22:02:07.013Z,13.70
2023-04-18T22:07:12.662Z,9.82
2023-04-18T22:12:19.744Z,11.02
2023-04-18T22:17:23.132Z,10.23
2023-04-18T22:22:27.080Z,12.52
2023-04-18T22:27:32.059Z,9.70
2023-04-18T22:32:36.683Z,11.02
2023-04-18T22:37:41.345Z,10.38
2023-04-18T22:42:47.431Z,10.35
2023-04-18T22:47:51.584Z,10.77
2023-04-18T22:52:58.263Z,12.77
2023-04-18T22:58:03.043Z,11.88
2023-04-18T23:03:06.773Z,11.55
2023-04-18T23:08:12.492Z,11.43
2023-04-18T23:13:17.422Z,11.95
2023-04-18T23:18:22.037Z,11.70
2023-04-18T23:23:29.802Z,12.32
2023-04-18T23:28:37.830Z,10.98
2023-04-18T23:33:41.387Z,10.50
2023-04-18T23:38:47.957Z,9.45
2023-04-18T23:43:56.166Z,12.80
2023-04-18T23:49:00.142Z,11.32
2023-04-18T23:54:04.132Z,11.23
2023-04-18T23:59:09.695Z,10.98
